sensor_id;sensor_type;location;lat;lon;timestamp;P1;durP1;ratioP1;P2;durP2;ratioP2
17784;SDS011;9016;53.582;10.062;2023-06-26T00:00:05;0.30;;;0.30;;
17784;SDS011;9016;53.582;10.062;2023-06-26T00:02:36;0.30;;;0.30;;
17784;SDS011;9016;53.582;10.062;2023-06-26T00:05:04;0.30;;;0.30;;
17784;SDS011;9016;53.582;10.062;2023-06-26T00:07:33;0.40;;;0.40;;
17784;SDS011;9016;53.582;10.062;2023-06-26T00:10:01;0.30;;;0.30;;
17784;SDS011;9016;53.582;10.062;2023-06-26T00:12:30;0.30;;;0.30;;
17784;SDS011;9016;53.582;10.062;2023-06-26T00:14:59;0.40;;;0.40;;
17784;SDS011;9016;53.582;10.062;2023-06-26T00:17:27;0.40;;;0.40;;
17784;SDS011;9016;53.582;10.062;2023-06-26T00:19:56;0.30;;;0.30;;
17784;SDS011;9016;53.582;10.062;2023-06-26T00:22:25;0.30;;;0.30;;
17784;SDS011;9016;53.582;10.062;2023-06-26T00:24:52;0.35;;;0.35;;
17784;SDS011;9016;53.582;10.062;2023-06-26T00:27:20;0.35;;;0.35;;
17784;SDS011;9016;53.582;10.062;2023-06-26T00:29:48;0.30;;;0.30;;
17784;SDS011;9016;53.582;10.062;2023-06-26T00:32:19;0.30;;;0.30;;
17784;SDS011;9016;53.582;10.062;2023-06-26T00:34:47;0.30;;;0.30;;
17784;SDS011;9016;53.582;10.062;2023-06-26T00:37:16;0.30;;;0.30;;
17784;SDS011;9016;53.582;10.062;2023-06-26T00:39:45;0.30;;;0.30;;
17784;SDS011;9016;53.582;10.062;2023-06-26T00:42:13;0.32;;;0.32;;
17784;SDS011;9016;53.582;10.062;2023-06-26T00:44:40;0.40;;;0.40;;
17784;SDS011;9016;53.582;10.062;2023-06-26T00:47:09;0.30;;;0.30;;
17784;SDS011;9016;53.582;10.062;2023-06-26T00:49:40;0.40;;;0.40;;
17784;SDS011;9016;53.582;10.062;2023-06-26T00:52:08;0.40;;;0.40;;
17784;SDS011;9016;53.582;10.062;2023-06-26T00:54:38;0.30;;;0.30;;
17784;SDS011;9016;53.582;10.062;2023-06-26T00:57:07;0.30;;;0.30;;
17784;SDS011;9016;53.582;10.062;2023-06-26T00:59:35;0.30;;;0.30;;
17784;SDS011;9016;53.582;10.062;2023-06-26T01:02:03;0.30;;;0.30;;
17784;SDS011;9016;53.582;10.062;2023-06-26T01:04:31;0.30;;;0.30;;
17784;SDS011;9016;53.582;10.062;2023-06-26T01:07:00;0.30;;;0.30;;
17784;SDS011;9016;53.582;10.062;2023-06-26T01:09:30;0.40;;;0.40;;
17784;SDS011;9016;53.582;10.062;2023-06-26T01:12:00;0.30;;;0.30;;
17784;SDS011;9016;53.582;10.062;2023-06-26T01:14:29;0.30;;;0.30;;
17784;SDS011;9016;53.582;10.062;2023-06-26T01:16:59;0.30;;;0.30;;
17784;SDS011;9016;53.582;10.062;2023-06-26T01:19:29;0.30;;;0.30;;
17784;SDS011;9016;53.582;10.062;2023-06-26T01:22:00;0.30;;;0.30;;
17784;SDS011;9016;53.582;10.062;2023-06-26T01:24:42;0.30;;;0.30;;
17784;SDS011;9016;53.582;10.062;2023-06-26T01:27:21;0.40;;;0.40;;
17784;SDS011;9016;53.582;10.062;2023-06-26T01:29:50;0.32;;;0.32;;
17784;SDS011;9016;53.582;10.062;2023-06-26T01:32:19;0.30;;;0.30;;
17784;SDS011;9016;53.582;10.062;2023-06-26T01:34:49;0.30;;;0.30;;
17784;SDS011;9016;53.582;10.062;2023-06-26T01:37:17;0.30;;;0.30;;
17784;SDS011;9016;53.582;10.062;2023-06-26T01:39:45;0.30;;;0.30;;
17784;SDS011;9016;53.582;10.062;2023-06-26T01:42:13;0.30;;;0.30;;
17784;SDS011;9016;53.582;10.062;2023-06-26T01:44:44;0.30;;;0.30;;
17784;SDS011;9016;53.582;10.062;2023-06-26T01:47:14;0.30;;;0.30;;
17784;SDS011;9016;53.582;10.062;2023-06-26T01:49:47;0.30;;;0.30;;
17784;SDS011;9016;53.582;10.062;2023-06-26T01:52:20;0.30;;;0.30;;
17784;SDS011;9016;53.582;10.062;2023-06-26T01:54:54;0.30;;;0.30;;
17784;SDS011;9016;53.582;10.062;2023-06-26T01:57:26;0.30;;;0.30;;
17784;SDS011;9016;53.582;10.062;2023-06-26T01:59:57;0.40;;;0.40;;
17784;SDS011;9016;53.582;10.062;2023-06-26T02:02:27;0.40;;;0.40;;
17784;SDS011;9016;53.582;10.062;2023-06-26T02:04:56;0.30;;;0.30;;
17784;SDS011;9016;53.582;10.062;2023-06-26T02:07:26;0.30;;;0.30;;
17784;SDS011;9016;53.582;10.062;2023-06-26T02:09:54;0.30;;;0.30;;
17784;SDS011;9016;53.582;10.062;2023-06-26T02:12:22;0.30;;;0.30;;
17784;SDS011;9016;53.582;10.062;2023-06-26T02:14:50;0.30;;;0.30;;
17784;SDS011;9016;53.582;10.062;2023-06-26T02:17:20;0.30;;;0.30;;
17784;SDS011;9016;53.582;10.062;2023-06-26T02:19:48;0.30;;;0.30;;
17784;SDS011;9016;53.582;10.062;2023-06-26T02:22:16;0.30;;;0.30;;
17784;SDS011;9016;53.582;10.062;2023-06-26T02:24:44;0.30;;;0.30;;
17784;SDS011;9016;53.582;10.062;2023-06-26T02:27:12;0.30;;;0.30;;
17784;SDS011;9016;53.582;10.062;2023-06-26T02:29:41;0.30;;;0.30;;
17784;SDS011;9016;53.582;10.062;2023-06-26T02:32:09;0.30;;;0.30;;
17784;SDS011;9016;53.582;10.062;2023-06-26T02:34:38;0.38;;;0.38;;
17784;SDS011;9016;53.582;10.062;2023-06-26T02:37:06;0.30;;;0.30;;
17784;SDS011;9016;53.582;10.062;2023-06-26T02:39:34;0.30;;;0.30;;
17784;SDS011;9016;53.582;10.062;2023-06-26T02:42:02;0.30;;;0.30;;
17784;SDS011;9016;53.582;10.062;2023-06-26T02:44:31;0.30;;;0.30;;
17784;SDS011;9016;53.582;10.062;2023-06-26T02:46:59;0.30;;;0.30;;
17784;SDS011;9016;53.582;10.062;2023-06-26T02:49:27;0.30;;;0.30;;
17784;SDS011;9016;53.582;10.062;2023-06-26T02:51:56;0.30;;;0.30;;
17784;SDS011;9016;53.582;10.062;2023-06-26T02:54:24;0.30;;;0.30;;
17784;SDS011;9016;53.582;10.062;2023-06-26T02:56:52;0.30;;;0.30;;
17784;SDS011;9016;53.582;10.062;2023-06-26T02:59:20;0.20;;;0.20;;
17784;SDS011;9016;53.582;10.062;2023-06-26T03:01:48;0.30;;;0.30;;
17784;SDS011;9016;53.582;10.062;2023-06-26T03:04:17;0.30;;;0.30;;
17784;SDS011;9016;53.582;10.062;2023-06-26T03:06:48;0.30;;;0.30;;
17784;SDS011;9016;53.582;10.062;2023-06-26T03:09:17;0.30;;;0.30;;
17784;SDS011;9016;53.582;10.062;2023-06-26T03:11:45;0.30;;;0.30;;
17784;SDS011;9016;53.582;10.062;2023-06-26T03:14:14;0.30;;;0.30;;
17784;SDS011;9016;53.582;10.062;2023-06-26T03:16:42;0.30;;;0.30;;
17784;SDS011;9016;53.582;10.062;2023-06-26T03:19:10;0.30;;;0.30;;
17784;SDS011;9016;53.582;10.062;2023-06-26T03:21:38;0.30;;;0.30;;
17784;SDS011;9016;53.582;10.062;2023-06-26T03:24:06;0.30;;;0.30;;
17784;SDS011;9016;53.582;10.062;2023-06-26T03:26:36;0.30;;;0.30;;
17784;SDS011;9016;53.582;10.062;2023-06-26T03:29:05;0.30;;;0.30;;
17784;SDS011;9016;53.582;10.062;2023-06-26T03:31:33;0.40;;;0.40;;
17784;SDS011;9016;53.582;10.062;2023-06-26T03:34:02;0.30;;;0.30;;
17784;SDS011;9016;53.582;10.062;2023-06-26T03:36:31;0.30;;;0.30;;
17784;SDS011;9016;53.582;10.062;2023-06-26T03:39:00;0.30;;;0.30;;
17784;SDS011;9016;53.582;10.062;2023-06-26T03:41:28;0.30;;;0.30;;
17784;SDS011;9016;53.582;10.062;2023-06-26T03:43:57;0.30;;;0.30;;
17784;SDS011;9016;53.582;10.062;2023-06-26T03:46:26;0.30;;;0.30;;
17784;SDS011;9016;53.582;10.062;2023-06-26T03:48:54;0.30;;;0.30;;
17784;SDS011;9016;53.582;10.062;2023-06-26T03:51:22;0.30;;;0.30;;
17784;SDS011;9016;53.582;10.062;2023-06-26T03:53:50;0.30;;;0.30;;
17784;SDS011;9016;53.582;10.062;2023-06-26T03:56:18;0.30;;;0.30;;
17784;SDS011;9016;53.582;10.062;2023-06-26T03:58:48;0.30;;;0.30;;
17784;SDS011;9016;53.582;10.062;2023-06-26T04:01:18;0.32;;;0.32;;
17784;SDS011;9016;53.582;10.062;2023-06-26T04:03:48;0.35;;;0.35;;
17784;SDS011;9016;53.582;10.062;2023-06-26T04:06:16;0.30;;;0.30;;
17784;SDS011;9016;53.582;10.062;2023-06-26T04:08:44;0.40;;;0.40;;
17784;SDS011;9016;53.582;10.062;2023-06-26T04:11:12;0.30;;;0.30;;
17784;SDS011;9016;53.582;10.062;2023-06-26T04:13:40;0.30;;;0.30;;
17784;SDS011;9016;53.582;10.062;2023-06-26T04:16:08;0.30;;;0.30;;
17784;SDS011;9016;53.582;10.062;2023-06-26T04:18:39;0.30;;;0.30;;
17784;SDS011;9016;53.582;10.062;2023-06-26T04:21:07;0.30;;;0.30;;
17784;SDS011;9016;53.582;10.062;2023-06-26T04:23:38;0.30;;;0.30;;
17784;SDS011;9016;53.582;10.062;2023-06-26T04:26:06;0.30;;;0.30;;
17784;SDS011;9016;53.582;10.062;2023-06-26T04:28:34;0.30;;;0.30;;
17784;SDS011;9016;53.582;10.062;2023-06-26T04:31:02;0.30;;;0.30;;
17784;SDS011;9016;53.582;10.062;2023-06-26T04:33:30;0.32;;;0.32;;
17784;SDS011;9016;53.582;10.062;2023-06-26T04:36:00;0.30;;;0.30;;
17784;SDS011;9016;53.582;10.062;2023-06-26T04:38:30;0.30;;;0.30;;
17784;SDS011;9016;53.582;10.062;2023-06-26T04:40:58;0.40;;;0.40;;
17784;SDS011;9016;53.582;10.062;2023-06-26T04:43:27;0.40;;;0.40;;
17784;SDS011;9016;53.582;10.062;2023-06-26T04:45:55;0.30;;;0.30;;
17784;SDS011;9016;53.582;10.062;2023-06-26T04:48:24;0.40;;;0.40;;
17784;SDS011;9016;53.582;10.062;2023-06-26T04:50:54;0.38;;;0.38;;
17784;SDS011;9016;53.582;10.062;2023-06-26T04:53:24;0.38;;;0.38;;
17784;SDS011;9016;53.582;10.062;2023-06-26T04:55:53;0.30;;;0.30;;
17784;SDS011;9016;53.582;10.062;2023-06-26T04:58:21;0.30;;;0.30;;
17784;SDS011;9016;53.582;10.062;2023-06-26T05:00:49;0.30;;;0.30;;
17784;SDS011;9016;53.582;10.062;2023-06-26T05:03:17;0.40;;;0.40;;
17784;SDS011;9016;53.582;10.062;2023-06-26T05:05:47;0.40;;;0.40;;
17784;SDS011;9016;53.582;10.062;2023-06-26T05:08:15;0.30;;;0.30;;
17784;SDS011;9016;53.582;10.062;2023-06-26T05:10:46;0.30;;;0.30;;
17784;SDS011;9016;53.582;10.062;2023-06-26T05:13:15;0.30;;;0.30;;
17784;SDS011;9016;53.582;10.062;2023-06-26T05:15:44;0.35;;;0.35;;
17784;SDS011;9016;53.582;10.062;2023-06-26T05:18:13;0.40;;;0.40;;
17784;SDS011;9016;53.582;10.062;2023-06-26T05:20:41;0.32;;;0.32;;
17784;SDS011;9016;53.582;10.062;2023-06-26T05:23:10;0.40;;;0.40;;
17784;SDS011;9016;53.582;10.062;2023-06-26T05:25:39;0.40;;;0.40;;
17784;SDS011;9016;53.582;10.062;2023-06-26T05:28:09;0.30;;;0.30;;
17784;SDS011;9016;53.582;10.062;2023-06-26T05:30:39;0.30;;;0.30;;
17784;SDS011;9016;53.582;10.062;2023-06-26T05:33:08;0.30;;;0.30;;
17784;SDS011;9016;53.582;10.062;2023-06-26T05:35:38;0.30;;;0.30;;
17784;SDS011;9016;53.582;10.062;2023-06-26T05:38:07;0.30;;;0.30;;
17784;SDS011;9016;53.582;10.062;2023-06-26T05:40:36;0.30;;;0.30;;
17784;SDS011;9016;53.582;10.062;2023-06-26T05:43:05;0.40;;;0.40;;
17784;SDS011;9016;53.582;10.062;2023-06-26T05:45:37;0.30;;;0.30;;
17784;SDS011;9016;53.582;10.062;2023-06-26T05:48:05;0.40;;;0.40;;
17784;SDS011;9016;53.582;10.062;2023-06-26T05:50:34;0.30;;;0.30;;
17784;SDS011;9016;53.582;10.062;2023-06-26T05:53:03;0.30;;;0.30;;
17784;SDS011;9016;53.582;10.062;2023-06-26T05:55:32;0.40;;;0.40;;
17784;SDS011;9016;53.582;10.062;2023-06-26T05:58:01;0.40;;;0.40;;
17784;SDS011;9016;53.582;10.062;2023-06-26T06:00:37;0.40;;;0.40;;
17784;SDS011;9016;53.582;10.062;2023-06-26T06:03:06;0.30;;;0.30;;
17784;SDS011;9016;53.582;10.062;2023-06-26T06:05:36;0.40;;;0.40;;
17784;SDS011;9016;53.582;10.062;2023-06-26T06:08:04;0.32;;;0.32;;
17784;SDS011;9016;53.582;10.062;2023-06-26T06:10:32;0.40;;;0.40;;
17784;SDS011;9016;53.582;10.062;2023-06-26T06:13:00;0.40;;;0.40;;
17784;SDS011;9016;53.582;10.062;2023-06-26T06:15:28;0.32;;;0.32;;
17784;SDS011;9016;53.582;10.062;2023-06-26T06:17:58;0.30;;;0.30;;
17784;SDS011;9016;53.582;10.062;2023-06-26T06:20:26;0.40;;;0.40;;
17784;SDS011;9016;53.582;10.062;2023-06-26T06:22:54;0.38;;;0.38;;
17784;SDS011;9016;53.582;10.062;2023-06-26T06:25:22;0.60;;;0.60;;
17784;SDS011;9016;53.582;10.062;2023-06-26T06:27:50;0.60;;;0.60;;
17784;SDS011;9016;53.582;10.062;2023-06-26T06:30:21;0.60;;;0.60;;
17784;SDS011;9016;53.582;10.062;2023-06-26T06:33:10;0.70;;;0.70;;
17784;SDS011;9016;53.582;10.062;2023-06-26T06:35:38;0.65;;;0.65;;
17784;SDS011;9016;53.582;10.062;2023-06-26T06:38:06;0.65;;;0.65;;
17784;SDS011;9016;53.582;10.062;2023-06-26T06:40:34;0.70;;;0.70;;
17784;SDS011;9016;53.582;10.062;2023-06-26T06:43:02;0.80;;;0.80;;
17784;SDS011;9016;53.582;10.062;2023-06-26T06:45:30;0.70;;;0.70;;
17784;SDS011;9016;53.582;10.062;2023-06-26T06:48:05;0.70;;;0.70;;
17784;SDS011;9016;53.582;10.062;2023-06-26T06:50:34;0.75;;;0.75;;
17784;SDS011;9016;53.582;10.062;2023-06-26T06:53:03;0.80;;;0.80;;
17784;SDS011;9016;53.582;10.062;2023-06-26T06:55:31;0.70;;;0.70;;
17784;SDS011;9016;53.582;10.062;2023-06-26T06:57:59;0.70;;;0.70;;
17784;SDS011;9016;53.582;10.062;2023-06-26T07:00:30;0.80;;;0.80;;
17784;SDS011;9016;53.582;10.062;2023-06-26T07:02:59;0.80;;;0.80;;
17784;SDS011;9016;53.582;10.062;2023-06-26T07:05:27;0.80;;;0.80;;
17784;SDS011;9016;53.582;10.062;2023-06-26T07:07:57;0.85;;;0.85;;
17784;SDS011;9016;53.582;10.062;2023-06-26T07:10:27;0.90;;;0.90;;
17784;SDS011;9016;53.582;10.062;2023-06-26T07:12:55;0.90;;;0.90;;
17784;SDS011;9016;53.582;10.062;2023-06-26T07:15:23;0.90;;;0.90;;
17784;SDS011;9016;53.582;10.062;2023-06-26T07:17:53;0.80;;;0.80;;
17784;SDS011;9016;53.582;10.062;2023-06-26T07:20:21;0.90;;;0.90;;
17784;SDS011;9016;53.582;10.062;2023-06-26T07:22:50;0.90;;;0.90;;
17784;SDS011;9016;53.582;10.062;2023-06-26T07:25:19;0.90;;;0.90;;
17784;SDS011;9016;53.582;10.062;2023-06-26T07:27:49;0.80;;;0.80;;
17784;SDS011;9016;53.582;10.062;2023-06-26T07:30:17;1.00;;;1.00;;
17784;SDS011;9016;53.582;10.062;2023-06-26T07:32:45;1.00;;;1.00;;
17784;SDS011;9016;53.582;10.062;2023-06-26T07:35:13;0.90;;;0.90;;
17784;SDS011;9016;53.582;10.062;2023-06-26T07:37:42;0.90;;;0.90;;
17784;SDS011;9016;53.582;10.062;2023-06-26T07:40:10;0.90;;;0.90;;
17784;SDS011;9016;53.582;10.062;2023-06-26T07:42:40;1.00;;;1.00;;
17784;SDS011;9016;53.582;10.062;2023-06-26T07:45:08;1.00;;;1.00;;
17784;SDS011;9016;53.582;10.062;2023-06-26T07:47:39;1.00;;;1.00;;
17784;SDS011;9016;53.582;10.062;2023-06-26T07:50:08;0.90;;;0.90;;
17784;SDS011;9016;53.582;10.062;2023-06-26T07:52:36;0.90;;;0.90;;
17784;SDS011;9016;53.582;10.062;2023-06-26T07:55:05;0.90;;;0.90;;
17784;SDS011;9016;53.582;10.062;2023-06-26T07:57:33;0.98;;;0.98;;
17784;SDS011;9016;53.582;10.062;2023-06-26T08:00:02;0.82;;;0.82;;
17784;SDS011;9016;53.582;10.062;2023-06-26T08:02:33;0.90;;;0.90;;
17784;SDS011;9016;53.582;10.062;2023-06-26T08:05:01;0.98;;;0.98;;
17784;SDS011;9016;53.582;10.062;2023-06-26T08:07:29;0.70;;;0.70;;
17784;SDS011;9016;53.582;10.062;2023-06-26T08:09:58;0.80;;;0.80;;
17784;SDS011;9016;53.582;10.062;2023-06-26T08:12:26;0.80;;;0.80;;
17784;SDS011;9016;53.582;10.062;2023-06-26T08:14:54;0.90;;;0.90;;
17784;SDS011;9016;53.582;10.062;2023-06-26T08:17:23;0.75;;;0.75;;
17784;SDS011;9016;53.582;10.062;2023-06-26T08:19:54;0.80;;;0.80;;
17784;SDS011;9016;53.582;10.062;2023-06-26T08:22:23;0.70;;;0.70;;
17784;SDS011;9016;53.582;10.062;2023-06-26T08:24:53;0.80;;;0.80;;
17784;SDS011;9016;53.582;10.062;2023-06-26T08:27:21;0.80;;;0.80;;
17784;SDS011;9016;53.582;10.062;2023-06-26T08:29:50;0.95;;;0.95;;
17784;SDS011;9016;53.582;10.062;2023-06-26T08:32:18;0.90;;;0.90;;
17784;SDS011;9016;53.582;10.062;2023-06-26T08:34:47;0.80;;;0.80;;
17784;SDS011;9016;53.582;10.062;2023-06-26T08:37:17;0.82;;;0.82;;
17784;SDS011;9016;53.582;10.062;2023-06-26T08:39:46;0.90;;;0.90;;
17784;SDS011;9016;53.582;10.062;2023-06-26T08:42:15;1.00;;;1.00;;
17784;SDS011;9016;53.582;10.062;2023-06-26T08:44:43;0.80;;;0.80;;
17784;SDS011;9016;53.582;10.062;2023-06-26T08:47:26;0.70;;;0.70;;
17784;SDS011;9016;53.582;10.062;2023-06-26T08:49:59;0.90;;;0.90;;
17784;SDS011;9016;53.582;10.062;2023-06-26T08:52:33;0.68;;;0.68;;
17784;SDS011;9016;53.582;10.062;2023-06-26T08:55:06;0.70;;;0.70;;
17784;SDS011;9016;53.582;10.062;2023-06-26T08:57:36;0.70;;;0.70;;
17784;SDS011;9016;53.582;10.062;2023-06-26T09:00:05;0.70;;;0.70;;
17784;SDS011;9016;53.582;10.062;2023-06-26T09:02:35;0.90;;;0.90;;
17784;SDS011;9016;53.582;10.062;2023-06-26T09:05:05;0.80;;;0.80;;
17784;SDS011;9016;53.582;10.062;2023-06-26T09:07:34;0.80;;;0.80;;
17784;SDS011;9016;53.582;10.062;2023-06-26T09:10:02;0.98;;;0.98;;
17784;SDS011;9016;53.582;10.062;2023-06-26T09:12:30;1.00;;;1.00;;
17784;SDS011;9016;53.582;10.062;2023-06-26T09:14:59;0.90;;;0.90;;
17784;SDS011;9016;53.582;10.062;2023-06-26T09:17:29;1.00;;;1.00;;
17784;SDS011;9016;53.582;10.062;2023-06-26T09:19:58;1.00;;;1.00;;
17784;SDS011;9016;53.582;10.062;2023-06-26T09:22:27;1.00;;;1.00;;
17784;SDS011;9016;53.582;10.062;2023-06-26T09:24:56;0.98;;;0.98;;
17784;SDS011;9016;53.582;10.062;2023-06-26T09:27:24;0.80;;;0.80;;
17784;SDS011;9016;53.582;10.062;2023-06-26T09:29:53;0.90;;;0.90;;
17784;SDS011;9016;53.582;10.062;2023-06-26T09:32:23;0.70;;;0.70;;
17784;SDS011;9016;53.582;10.062;2023-06-26T09:34:52;0.80;;;0.80;;
17784;SDS011;9016;53.582;10.062;2023-06-26T09:37:22;0.70;;;0.70;;
17784;SDS011;9016;53.582;10.062;2023-06-26T09:39:52;0.60;;;0.60;;
17784;SDS011;9016;53.582;10.062;2023-06-26T09:42:20;0.60;;;0.60;;
17784;SDS011;9016;53.582;10.062;2023-06-26T09:44:48;0.63;;;0.63;;
17784;SDS011;9016;53.582;10.062;2023-06-26T09:47:18;0.60;;;0.60;;
17784;SDS011;9016;53.582;10.062;2023-06-26T09:49:49;0.60;;;0.60;;
17784;SDS011;9016;53.582;10.062;2023-06-26T09:52:19;0.60;;;0.60;;
17784;SDS011;9016;53.582;10.062;2023-06-26T09:54:47;0.55;;;0.55;;
17784;SDS011;9016;53.582;10.062;2023-06-26T09:57:16;0.60;;;0.60;;
17784;SDS011;9016;53.582;10.062;2023-06-26T09:59:46;0.50;;;0.50;;
17784;SDS011;9016;53.582;10.062;2023-06-26T10:02:14;0.60;;;0.60;;
17784;SDS011;9016;53.582;10.062;2023-06-26T10:04:42;0.50;;;0.50;;
17784;SDS011;9016;53.582;10.062;2023-06-26T10:07:11;0.50;;;0.50;;
17784;SDS011;9016;53.582;10.062;2023-06-26T10:09:41;0.50;;;0.50;;
17784;SDS011;9016;53.582;10.062;2023-06-26T10:12:11;0.45;;;0.45;;
17784;SDS011;9016;53.582;10.062;2023-06-26T10:14:43;0.43;;;0.43;;
17784;SDS011;9016;53.582;10.062;2023-06-26T10:17:15;0.40;;;0.40;;
17784;SDS011;9016;53.582;10.062;2023-06-26T10:19:46;0.40;;;0.40;;
17784;SDS011;9016;53.582;10.062;2023-06-26T10:22:18;0.40;;;0.40;;
17784;SDS011;9016;53.582;10.062;2023-06-26T10:24:49;0.40;;;0.40;;
17784;SDS011;9016;53.582;10.062;2023-06-26T10:27:20;0.40;;;0.40;;
17784;SDS011;9016;53.582;10.062;2023-06-26T10:29:52;0.40;;;0.40;;
17784;SDS011;9016;53.582;10.062;2023-06-26T10:32:25;0.30;;;0.30;;
17784;SDS011;9016;53.582;10.062;2023-06-26T10:34:54;0.30;;;0.30;;
17784;SDS011;9016;53.582;10.062;2023-06-26T10:40:11;0.30;;;0.30;;
17784;SDS011;9016;53.582;10.062;2023-06-26T10:42:40;0.40;;;0.40;;
17784;SDS011;9016;53.582;10.062;2023-06-26T10:45:10;0.30;;;0.30;;
17784;SDS011;9016;53.582;10.062;2023-06-26T10:47:41;0.30;;;0.30;;
17784;SDS011;9016;53.582;10.062;2023-06-26T10:50:19;0.35;;;0.35;;
17784;SDS011;9016;53.582;10.062;2023-06-26T10:55:37;0.30;;;0.30;;
17784;SDS011;9016;53.582;10.062;2023-06-26T11:01:16;0.30;;;0.30;;
17784;SDS011;9016;53.582;10.062;2023-06-26T11:03:46;0.30;;;0.30;;
17784;SDS011;9016;53.582;10.062;2023-06-26T11:06:20;0.40;;;0.40;;
17784;SDS011;9016;53.582;10.062;2023-06-26T11:08:50;0.50;;;0.50;;
17784;SDS011;9016;53.582;10.062;2023-06-26T11:11:20;0.43;;;0.43;;
17784;SDS011;9016;53.582;10.062;2023-06-26T11:13:50;0.40;;;0.40;;
17784;SDS011;9016;53.582;10.062;2023-06-26T11:16:20;0.45;;;0.45;;
17784;SDS011;9016;53.582;10.062;2023-06-26T11:18:48;0.38;;;0.38;;
17784;SDS011;9016;53.582;10.062;2023-06-26T11:21:17;0.40;;;0.40;;
17784;SDS011;9016;53.582;10.062;2023-06-26T11:23:49;0.40;;;0.40;;
17784;SDS011;9016;53.582;10.062;2023-06-26T11:26:18;0.30;;;0.30;;
17784;SDS011;9016;53.582;10.062;2023-06-26T11:28:48;0.35;;;0.35;;
17784;SDS011;9016;53.582;10.062;2023-06-26T11:31:26;0.40;;;0.40;;
17784;SDS011;9016;53.582;10.062;2023-06-26T11:33:57;0.38;;;0.38;;
17784;SDS011;9016;53.582;10.062;2023-06-26T11:36:27;0.40;;;0.40;;
17784;SDS011;9016;53.582;10.062;2023-06-26T11:38:56;0.30;;;0.30;;
17784;SDS011;9016;53.582;10.062;2023-06-26T11:41:26;0.30;;;0.30;;
17784;SDS011;9016;53.582;10.062;2023-06-26T11:43:56;0.30;;;0.30;;
17784;SDS011;9016;53.582;10.062;2023-06-26T11:46:32;0.35;;;0.35;;
17784;SDS011;9016;53.582;10.062;2023-06-26T11:49:02;0.30;;;0.30;;
17784;SDS011;9016;53.582;10.062;2023-06-26T11:51:31;0.40;;;0.40;;
17784;SDS011;9016;53.582;10.062;2023-06-26T11:54:00;0.40;;;0.40;;
17784;SDS011;9016;53.582;10.062;2023-06-26T11:56:29;0.30;;;0.30;;
17784;SDS011;9016;53.582;10.062;2023-06-26T11:58:58;0.40;;;0.40;;
17784;SDS011;9016;53.582;10.062;2023-06-26T12:01:31;0.38;;;0.38;;
17784;SDS011;9016;53.582;10.062;2023-06-26T12:04:01;0.30;;;0.30;;
17784;SDS011;9016;53.582;10.062;2023-06-26T12:06:32;0.40;;;0.40;;
17784;SDS011;9016;53.582;10.062;2023-06-26T12:09:02;0.40;;;0.40;;
17784;SDS011;9016;53.582;10.062;2023-06-26T12:11:32;0.30;;;0.30;;
17784;SDS011;9016;53.582;10.062;2023-06-26T12:14:02;0.40;;;0.40;;
17784;SDS011;9016;53.582;10.062;2023-06-26T12:16:32;0.40;;;0.40;;
17784;SDS011;9016;53.582;10.062;2023-06-26T12:19:02;0.32;;;0.32;;
17784;SDS011;9016;53.582;10.062;2023-06-26T12:21:43;0.30;;;0.30;;
17784;SDS011;9016;53.582;10.062;2023-06-26T12:24:14;0.40;;;0.40;;
17784;SDS011;9016;53.582;10.062;2023-06-26T12:26:44;0.30;;;0.30;;
17784;SDS011;9016;53.582;10.062;2023-06-26T12:29:13;0.35;;;0.35;;
17784;SDS011;9016;53.582;10.062;2023-06-26T12:31:45;0.40;;;0.40;;
17784;SDS011;9016;53.582;10.062;2023-06-26T12:34:19;0.40;;;0.40;;
17784;SDS011;9016;53.582;10.062;2023-06-26T12:36:48;0.40;;;0.40;;
17784;SDS011;9016;53.582;10.062;2023-06-26T12:39:19;0.40;;;0.40;;
17784;SDS011;9016;53.582;10.062;2023-06-26T12:41:49;0.40;;;0.40;;
17784;SDS011;9016;53.582;10.062;2023-06-26T12:44:20;0.30;;;0.30;;
17784;SDS011;9016;53.582;10.062;2023-06-26T12:46:53;0.35;;;0.35;;
17784;SDS011;9016;53.582;10.062;2023-06-26T12:49:28;0.32;;;0.32;;
17784;SDS011;9016;53.582;10.062;2023-06-26T12:51:58;0.30;;;0.30;;
17784;SDS011;9016;53.582;10.062;2023-06-26T12:54:27;0.30;;;0.30;;
17784;SDS011;9016;53.582;10.062;2023-06-26T12:56:55;0.40;;;0.40;;
17784;SDS011;9016;53.582;10.062;2023-06-26T12:59:24;0.40;;;0.40;;
17784;SDS011;9016;53.582;10.062;2023-06-26T13:01:54;0.30;;;0.30;;
17784;SDS011;9016;53.582;10.062;2023-06-26T13:04:22;0.40;;;0.40;;
17784;SDS011;9016;53.582;10.062;2023-06-26T13:06:52;0.40;;;0.40;;
17784;SDS011;9016;53.582;10.062;2023-06-26T13:09:21;0.38;;;0.38;;
17784;SDS011;9016;53.582;10.062;2023-06-26T13:11:50;0.30;;;0.30;;
17784;SDS011;9016;53.582;10.062;2023-06-26T13:14:20;0.35;;;0.35;;
17784;SDS011;9016;53.582;10.062;2023-06-26T13:16:48;0.40;;;0.40;;
17784;SDS011;9016;53.582;10.062;2023-06-26T13:19:21;0.40;;;0.40;;
17784;SDS011;9016;53.582;10.062;2023-06-26T13:21:50;0.50;;;0.50;;
17784;SDS011;9016;53.582;10.062;2023-06-26T13:24:18;0.38;;;0.38;;
17784;SDS011;9016;53.582;10.062;2023-06-26T13:26:47;0.40;;;0.40;;
17784;SDS011;9016;53.582;10.062;2023-06-26T13:29:15;0.30;;;0.30;;
17784;SDS011;9016;53.582;10.062;2023-06-26T13:31:43;0.40;;;0.40;;
17784;SDS011;9016;53.582;10.062;2023-06-26T13:34:20;0.32;;;0.32;;
17784;SDS011;9016;53.582;10.062;2023-06-26T13:36:50;0.40;;;0.40;;
17784;SDS011;9016;53.582;10.062;2023-06-26T13:39:18;0.40;;;0.40;;
17784;SDS011;9016;53.582;10.062;2023-06-26T13:41:46;0.40;;;0.40;;
17784;SDS011;9016;53.582;10.062;2023-06-26T13:44:14;0.40;;;0.40;;
17784;SDS011;9016;53.582;10.062;2023-06-26T13:46:52;0.40;;;0.40;;
17784;SDS011;9016;53.582;10.062;2023-06-26T13:49:22;0.40;;;0.40;;
17784;SDS011;9016;53.582;10.062;2023-06-26T13:51:49;0.40;;;0.40;;
17784;SDS011;9016;53.582;10.062;2023-06-26T13:54:17;0.40;;;0.40;;
17784;SDS011;9016;53.582;10.062;2023-06-26T13:56:45;0.40;;;0.40;;
17784;SDS011;9016;53.582;10.062;2023-06-26T13:59:13;0.30;;;0.30;;
17784;SDS011;9016;53.582;10.062;2023-06-26T14:01:41;0.30;;;0.30;;
17784;SDS011;9016;53.582;10.062;2023-06-26T14:04:10;0.40;;;0.40;;
17784;SDS011;9016;53.582;10.062;2023-06-26T14:06:40;0.40;;;0.40;;
17784;SDS011;9016;53.582;10.062;2023-06-26T14:09:08;0.35;;;0.35;;
17784;SDS011;9016;53.582;10.062;2023-06-26T14:11:36;0.40;;;0.40;;
17784;SDS011;9016;53.582;10.062;2023-06-26T14:14:04;0.40;;;0.40;;
17784;SDS011;9016;53.582;10.062;2023-06-26T14:16:32;0.40;;;0.40;;
17784;SDS011;9016;53.582;10.062;2023-06-26T14:19:00;0.50;;;0.50;;
17784;SDS011;9016;53.582;10.062;2023-06-26T14:21:29;0.30;;;0.30;;
17784;SDS011;9016;53.582;10.062;2023-06-26T14:23:58;0.30;;;0.30;;
17784;SDS011;9016;53.582;10.062;2023-06-26T14:26:27;0.30;;;0.30;;
17784;SDS011;9016;53.582;10.062;2023-06-26T14:28:56;0.30;;;0.30;;
17784;SDS011;9016;53.582;10.062;2023-06-26T14:31:24;0.35;;;0.35;;
17784;SDS011;9016;53.582;10.062;2023-06-26T14:33:53;0.32;;;0.32;;
17784;SDS011;9016;53.582;10.062;2023-06-26T14:36:21;0.40;;;0.40;;
17784;SDS011;9016;53.582;10.062;2023-06-26T14:38:49;0.40;;;0.40;;
17784;SDS011;9016;53.582;10.062;2023-06-26T14:41:19;0.30;;;0.30;;
17784;SDS011;9016;53.582;10.062;2023-06-26T14:43:47;0.35;;;0.35;;
17784;SDS011;9016;53.582;10.062;2023-06-26T14:46:16;0.30;;;0.30;;
17784;SDS011;9016;53.582;10.062;2023-06-26T14:48:44;0.40;;;0.40;;
17784;SDS011;9016;53.582;10.062;2023-06-26T14:51:13;0.40;;;0.40;;
17784;SDS011;9016;53.582;10.062;2023-06-26T14:53:41;0.35;;;0.35;;
17784;SDS011;9016;53.582;10.062;2023-06-26T14:56:09;0.30;;;0.30;;
17784;SDS011;9016;53.582;10.062;2023-06-26T14:58:39;0.30;;;0.30;;
17784;SDS011;9016;53.582;10.062;2023-06-26T15:01:07;0.40;;;0.40;;
17784;SDS011;9016;53.582;10.062;2023-06-26T15:03:35;0.30;;;0.30;;
17784;SDS011;9016;53.582;10.062;2023-06-26T15:06:03;0.40;;;0.40;;
17784;SDS011;9016;53.582;10.062;2023-06-26T15:08:31;0.30;;;0.30;;